sensor_id;sensor_type;location;lat;lon;timestamp;pressure;altitude;pressure_sealevel;temperature;humidity
11395;BME280;5753;54.402;10.220;2023-10-31T00:00:39;99581.56;;;23.48;47.26
11395;BME280;5753;54.402;10.220;2023-10-31T00:03:05;99578.34;;;23.43;46.97
11395;BME280;5753;54.402;10.220;2023-10-31T00:05:31;99571.25;;;23.13;48.14
11395;BME280;5753;54.402;10.220;2023-10-31T00:07:57;99565.16;;;23.29;47.47
11395;BME280;5753;54.402;10.220;2023-10-31T00:10:23;99558.56;;;23.51;47.01
11395;BME280;5753;54.402;10.220;2023-10-31T00:12:50;99556.63;;;23.55;46.88
11395;BME280;5753;54.402;10.220;2023-10-31T00:15:16;99553.75;;;23.44;47.20
11395;BME280;5753;54.402;10.220;2023-10-31T00:17:42;99538.94;;;23.11;48.01
11395;BME280;5753;54.402;10.220;2023-10-31T00:20:08;99532.69;;;23.44;47.44
11395;BME280;5753;54.402;10.220;2023-10-31T00:22:34;99524.50;;;23.64;46.92
11395;BME280;5753;54.402;10.220;2023-10-31T00:25:00;99513.28;;;23.76;46.47
11395;BME280;5753;54.402;10.220;2023-10-31T00:27:26;99505.00;;;23.68;46.84
11395;BME280;5753;54.402;10.220;2023-10-31T00:29:52;99499.94;;;23.65;46.52
11395;BME280;5753;54.402;10.220;2023-10-31T00:32:18;99499.00;;;23.66;46.64
11395;BME280;5753;54.402;10.220;2023-10-31T00:34:44;99500.28;;;23.43;47.37
11395;BME280;5753;54.402;10.220;2023-10-31T00:37:11;99500.59;;;23.53;47.04
11395;BME280;5753;54.402;10.220;2023-10-31T00:39:38;99495.63;;;22.40;49.56
11395;BME280;5753;54.402;10.220;2023-10-31T00:42:04;99490.16;;;23.51;47.24
11395;BME280;5753;54.402;10.220;2023-10-31T00:44:30;99490.91;;;23.39;47.69
11395;BME280;5753;54.402;10.220;2023-10-31T00:46:56;99486.84;;;22.88;49.23
11395;BME280;5753;54.402;10.220;2023-10-31T00:49:22;99496.13;;;23.25;48.15
11395;BME280;5753;54.402;10.220;2023-10-31T00:51:48;99491.44;;;23.60;47.05
11395;BME280;5753;54.402;10.220;2023-10-31T00:54:14;99493.63;;;23.68;47.14
11395;BME280;5753;54.402;10.220;2023-10-31T00:56:40;99490.78;;;23.57;47.24
11395;BME280;5753;54.402;10.220;2023-10-31T00:59:06;99485.31;;;23.30;47.96
11395;BME280;5753;54.402;10.220;2023-10-31T01:01:32;99488.22;;;23.25;48.29
11395;BME280;5753;54.402;10.220;2023-10-31T01:03:58;99482.41;;;23.04;48.56
11395;BME280;5753;54.402;10.220;2023-10-31T01:06:24;99468.69;;;23.59;47.64
11395;BME280;5753;54.402;10.220;2023-10-31T01:08:50;99467.22;;;23.39;48.13
11395;BME280;5753;54.402;10.220;2023-10-31T01:11:16;99467.34;;;23.52;47.50
11395;BME280;5753;54.402;10.220;2023-10-31T01:13:42;99459.06;;;23.44;47.74
11395;BME280;5753;54.402;10.220;2023-10-31T01:16:08;99449.22;;;22.87;49.05
11395;BME280;5753;54.402;10.220;2023-10-31T01:18:34;99441.59;;;22.83;49.46
11395;BME280;5753;54.402;10.220;2023-10-31T01:21:00;99435.38;;;22.68;49.92
11395;BME280;5753;54.402;10.220;2023-10-31T01:23:27;99423.44;;;22.94;49.08
11395;BME280;5753;54.402;10.220;2023-10-31T01:25:53;99422.66;;;22.60;50.47
11395;BME280;5753;54.402;10.220;2023-10-31T01:28:19;99422.03;;;21.92;51.31
11395;BME280;5753;54.402;10.220;2023-10-31T01:30:45;99426.34;;;22.42;50.68
11395;BME280;5753;54.402;10.220;2023-10-31T01:33:11;99421.28;;;23.31;48.35
11395;BME280;5753;54.402;10.220;2023-10-31T01:35:37;99414.78;;;22.76;50.03
11395;BME280;5753;54.402;10.220;2023-10-31T01:38:03;99415.13;;;22.86;49.49
11395;BME280;5753;54.402;10.220;2023-10-31T01:40:29;99406.38;;;23.15;49.23
11395;BME280;5753;54.402;10.220;2023-10-31T01:42:56;99403.38;;;23.07;49.40
11395;BME280;5753;54.402;10.220;2023-10-31T01:45:22;99397.44;;;23.48;48.20
11395;BME280;5753;54.402;10.220;2023-10-31T01:47:48;99403.91;;;22.98;49.48
11395;BME280;5753;54.402;10.220;2023-10-31T01:50:16;99390.28;;;23.21;48.60
11395;BME280;5753;54.402;10.220;2023-10-31T01:52:43;99379.88;;;22.90;49.75
11395;BME280;5753;54.402;10.220;2023-10-31T01:55:11;99388.31;;;22.95;50.03
11395;BME280;5753;54.402;10.220;2023-10-31T01:57:37;99379.50;;;23.40;48.54
11395;BME280;5753;54.402;10.220;2023-10-31T02:00:05;99374.69;;;22.88;50.12
11395;BME280;5753;54.402;10.220;2023-10-31T02:02:33;99370.28;;;22.89;50.11
11395;BME280;5753;54.402;10.220;2023-10-31T02:05:01;99379.81;;;23.06;50.21
11395;BME280;5753;54.402;10.220;2023-10-31T02:07:27;99367.47;;;22.92;50.39
11395;BME280;5753;54.402;10.220;2023-10-31T02:09:53;99368.41;;;22.91;50.63
11395;BME280;5753;54.402;10.220;2023-10-31T02:12:36;99358.41;;;23.12;49.89
11395;BME280;5753;54.402;10.220;2023-10-31T02:15:03;99361.59;;;21.78;52.81
11395;BME280;5753;54.402;10.220;2023-10-31T02:17:29;99363.91;;;22.47;51.99
11395;BME280;5753;54.402;10.220;2023-10-31T02:19:55;99365.13;;;22.87;50.81
11395;BME280;5753;54.402;10.220;2023-10-31T02:22:22;99358.53;;;21.37;54.78
11395;BME280;5753;54.402;10.220;2023-10-31T02:24:48;99359.25;;;23.12;50.70
11395;BME280;5753;54.402;10.220;2023-10-31T02:27:15;99370.38;;;22.87;50.94
11395;BME280;5753;54.402;10.220;2023-10-31T02:29:41;99359.50;;;23.38;49.88
11395;BME280;5753;54.402;10.220;2023-10-31T02:32:07;99352.41;;;23.68;48.68
11395;BME280;5753;54.402;10.220;2023-10-31T02:34:33;99362.81;;;23.55;49.15
11395;BME280;5753;54.402;10.220;2023-10-31T02:37:00;99349.31;;;22.57;51.63
11395;BME280;5753;54.402;10.220;2023-10-31T02:39:26;99350.28;;;23.45;49.56
11395;BME280;5753;54.402;10.220;2023-10-31T02:41:52;99343.38;;;23.00;50.73
11395;BME280;5753;54.402;10.220;2023-10-31T02:44:18;99344.47;;;23.26;49.53
11395;BME280;5753;54.402;10.220;2023-10-31T02:46:44;99343.31;;;23.15;49.82
11395;BME280;5753;54.402;10.220;2023-10-31T02:49:10;99337.13;;;22.56;51.19
11395;BME280;5753;54.402;10.220;2023-10-31T02:51:36;99338.94;;;22.86;50.93
11395;BME280;5753;54.402;10.220;2023-10-31T02:54:03;99336.50;;;22.67;51.83
11395;BME280;5753;54.402;10.220;2023-10-31T02:56:29;99330.56;;;22.63;51.28
11395;BME280;5753;54.402;10.220;2023-10-31T02:58:55;99327.09;;;23.23;49.91
11395;BME280;5753;54.402;10.220;2023-10-31T03:01:21;99316.38;;;23.40;49.10
11395;BME280;5753;54.402;10.220;2023-10-31T03:03:47;99331.28;;;23.11;50.41
11395;BME280;5753;54.402;10.220;2023-10-31T03:06:13;99318.00;;;22.84;51.00
11395;BME280;5753;54.402;10.220;2023-10-31T03:08:40;99318.31;;;22.94;50.61
11395;BME280;5753;54.402;10.220;2023-10-31T03:11:06;99317.34;;;22.81;51.35
11395;BME280;5753;54.402;10.220;2023-10-31T03:13:32;99318.19;;;22.66;51.35
11395;BME280;5753;54.402;10.220;2023-10-31T03:15:58;99322.69;;;22.34;52.34
11395;BME280;5753;54.402;10.220;2023-10-31T03:18:24;99318.78;;;22.41;51.75
11395;BME280;5753;54.402;10.220;2023-10-31T03:20:50;99297.75;;;22.86;51.66
11395;BME280;5753;54.402;10.220;2023-10-31T03:23:16;99293.84;;;22.48;52.23
11395;BME280;5753;54.402;10.220;2023-10-31T03:25:42;99292.34;;;23.46;49.35
11395;BME280;5753;54.402;10.220;2023-10-31T03:28:18;99287.81;;;22.91;50.78
11395;BME280;5753;54.402;10.220;2023-10-31T03:30:46;99276.31;;;23.22;50.33
11395;BME280;5753;54.402;10.220;2023-10-31T03:33:12;99272.94;;;22.76;51.98
11395;BME280;5753;54.402;10.220;2023-10-31T03:35:39;99273.16;;;22.87;51.35
11395;BME280;5753;54.402;10.220;2023-10-31T03:38:05;99269.63;;;23.60;49.64
11395;BME280;5753;54.402;10.220;2023-10-31T03:40:31;99269.13;;;23.53;49.44
11395;BME280;5753;54.402;10.220;2023-10-31T03:42:57;99264.63;;;23.41;49.95
11395;BME280;5753;54.402;10.220;2023-10-31T03:45:23;99269.91;;;23.55;49.30
11395;BME280;5753;54.402;10.220;2023-10-31T03:47:49;99271.88;;;23.37;49.93
11395;BME280;5753;54.402;10.220;2023-10-31T03:50:15;99274.78;;;23.75;49.09
11395;BME280;5753;54.402;10.220;2023-10-31T03:52:41;99270.03;;;23.95;48.51
11395;BME280;5753;54.402;10.220;2023-10-31T03:55:07;99269.97;;;23.82;48.63
11395;BME280;5753;54.402;10.220;2023-10-31T03:57:34;99259.78;;;23.90;48.15
11395;BME280;5753;54.402;10.220;2023-10-31T04:00:00;99264.06;;;23.50;49.50
11395;BME280;5753;54.402;10.220;2023-10-31T04:02:26;99262.56;;;23.74;48.83
11395;BME280;5753;54.402;10.220;2023-10-31T04:04:52;99259.78;;;23.35;49.69
11395;BME280;5753;54.402;10.220;2023-10-31T04:07:18;99254.31;;;22.65;51.52
11395;BME280;5753;54.402;10.220;2023-10-31T04:09:44;99250.25;;;23.61;49.39
11395;BME280;5753;54.402;10.220;2023-10-31T04:12:10;99249.25;;;22.92;50.90
11395;BME280;5753;54.402;10.220;2023-10-31T04:14:37;99239.84;;;22.88;50.86
11395;BME280;5753;54.402;10.220;2023-10-31T04:17:04;99241.06;;;22.82;51.19
11395;BME280;5753;54.402;10.220;2023-10-31T04:19:30;99234.59;;;23.31;49.83
11395;BME280;5753;54.402;10.220;2023-10-31T04:21:56;99234.56;;;23.59;49.38
11395;BME280;5753;54.402;10.220;2023-10-31T04:24:22;99236.75;;;22.81;50.49
11395;BME280;5753;54.402;10.220;2023-10-31T04:26:48;99232.88;;;23.72;49.09
11395;BME280;5753;54.402;10.220;2023-10-31T04:29:14;99221.00;;;22.96;50.13
11395;BME280;5753;54.402;10.220;2023-10-31T04:31:40;99226.31;;;23.65;48.96
11395;BME280;5753;54.402;10.220;2023-10-31T04:34:08;99216.44;;;23.54;48.97
11395;BME280;5753;54.402;10.220;2023-10-31T04:36:34;99214.09;;;23.64;48.75
11395;BME280;5753;54.402;10.220;2023-10-31T04:39:00;99215.00;;;23.22;49.97
11395;BME280;5753;54.402;10.220;2023-10-31T04:41:26;99203.59;;;23.36;49.41
11395;BME280;5753;54.402;10.220;2023-10-31T04:43:52;99201.84;;;23.22;49.91
11395;BME280;5753;54.402;10.220;2023-10-31T04:46:18;99197.50;;;23.35;49.29
11395;BME280;5753;54.402;10.220;2023-10-31T04:48:44;99196.50;;;23.65;48.73
11395;BME280;5753;54.402;10.220;2023-10-31T04:51:10;99200.59;;;23.56;48.89
11395;BME280;5753;54.402;10.220;2023-10-31T04:53:37;99186.66;;;23.54;49.15
11395;BME280;5753;54.402;10.220;2023-10-31T04:56:03;99188.09;;;23.86;48.09
11395;BME280;5753;54.402;10.220;2023-10-31T04:58:29;99198.16;;;23.39;49.16
11395;BME280;5753;54.402;10.220;2023-10-31T05:00:55;99196.50;;;23.23;49.85
11395;BME280;5753;54.402;10.220;2023-10-31T05:03:22;99197.38;;;23.51;48.94
11395;BME280;5753;54.402;10.220;2023-10-31T05:05:48;99188.03;;;23.33;49.21
11395;BME280;5753;54.402;10.220;2023-10-31T05:08:14;99178.19;;;23.77;48.12
11395;BME280;5753;54.402;10.220;2023-10-31T05:10:40;99188.84;;;23.47;48.87
11395;BME280;5753;54.402;10.220;2023-10-31T05:13:06;99183.84;;;23.71;48.32
11395;BME280;5753;54.402;10.220;2023-10-31T05:15:32;99187.22;;;23.73;48.33
11395;BME280;5753;54.402;10.220;2023-10-31T05:17:59;99184.47;;;23.75;48.22
11395;BME280;5753;54.402;10.220;2023-10-31T05:20:25;99180.72;;;23.65;48.22
11395;BME280;5753;54.402;10.220;2023-10-31T05:22:51;99185.56;;;23.44;48.77
11395;BME280;5753;54.402;10.220;2023-10-31T05:25:17;99182.34;;;23.67;48.49
11395;BME280;5753;54.402;10.220;2023-10-31T05:27:43;99173.25;;;23.85;48.16
11395;BME280;5753;54.402;10.220;2023-10-31T05:30:09;99176.00;;;23.97;47.96
11395;BME280;5753;54.402;10.220;2023-10-31T05:32:36;99171.56;;;23.84;47.90
11395;BME280;5753;54.402;10.220;2023-10-31T05:35:02;99172.09;;;23.90;48.01
11395;BME280;5753;54.402;10.220;2023-10-31T05:37:28;99174.63;;;23.50;48.86
11395;BME280;5753;54.402;10.220;2023-10-31T05:39:54;99171.50;;;23.16;50.04
11395;BME280;5753;54.402;10.220;2023-10-31T05:42:20;99162.59;;;23.05;49.88
11395;BME280;5753;54.402;10.220;2023-10-31T05:44:46;99143.16;;;23.63;48.78
11395;BME280;5753;54.402;10.220;2023-10-31T05:47:13;99148.28;;;23.78;47.97
11395;BME280;5753;54.402;10.220;2023-10-31T05:49:39;99147.88;;;23.84;48.22
11395;BME280;5753;54.402;10.220;2023-10-31T05:52:05;99142.84;;;23.94;47.86
11395;BME280;5753;54.402;10.220;2023-10-31T05:54:31;99148.28;;;23.78;48.46
11395;BME280;5753;54.402;10.220;2023-10-31T05:56:57;99147.69;;;23.61;48.58
11395;BME280;5753;54.402;10.220;2023-10-31T05:59:23;99148.09;;;23.40;48.87
11395;BME280;5753;54.402;10.220;2023-10-31T06:01:49;99159.25;;;23.58;48.53
11395;BME280;5753;54.402;10.220;2023-10-31T06:04:16;99152.81;;;22.64;51.18
11395;BME280;5753;54.402;10.220;2023-10-31T06:06:42;99159.06;;;23.47;49.15
11395;BME280;5753;54.402;10.220;2023-10-31T06:09:08;99155.09;;;23.54;48.97
11395;BME280;5753;54.402;10.220;2023-10-31T06:11:36;99172.22;;;23.88;47.97
11395;BME280;5753;54.402;10.220;2023-10-31T06:14:02;99165.22;;;23.74;48.18
11395;BME280;5753;54.402;10.220;2023-10-31T06:16:28;99162.41;;;23.90;48.25
11395;BME280;5753;54.402;10.220;2023-10-31T06:18:54;99170.31;;;23.63;48.52
11395;BME280;5753;54.402;10.220;2023-10-31T06:21:20;99173.84;;;23.76;48.57
11395;BME280;5753;54.402;10.220;2023-10-31T06:23:46;99164.19;;;23.63;48.53
11395;BME280;5753;54.402;10.220;2023-10-31T06:26:12;99167.59;;;23.92;48.09
11395;BME280;5753;54.402;10.220;2023-10-31T06:28:39;99156.69;;;23.71;47.94
11395;BME280;5753;54.402;10.220;2023-10-31T06:31:06;99152.63;;;23.92;48.10
11395;BME280;5753;54.402;10.220;2023-10-31T06:33:32;99150.88;;;24.05;47.91
11395;BME280;5753;54.402;10.220;2023-10-31T06:35:58;99157.19;;;24.03;47.75
11395;BME280;5753;54.402;10.220;2023-10-31T06:38:24;99154.56;;;24.03;47.61
11395;BME280;5753;54.402;10.220;2023-10-31T06:40:50;99153.41;;;24.07;47.75
11395;BME280;5753;54.402;10.220;2023-10-31T06:43:16;99153.09;;;24.11;47.47
11395;BME280;5753;54.402;10.220;2023-10-31T06:45:42;99158.06;;;24.16;47.69
11395;BME280;5753;54.402;10.220;2023-10-31T06:48:08;99145.66;;;24.18;47.47
11395;BME280;5753;54.402;10.220;2023-10-31T06:50:35;99150.97;;;24.31;47.36
11395;BME280;5753;54.402;10.220;2023-10-31T06:53:01;99148.91;;;24.22;47.83
11395;BME280;5753;54.402;10.220;2023-10-31T06:55:27;99156.28;;;24.16;48.00
11395;BME280;5753;54.402;10.220;2023-10-31T06:57:53;99152.59;;;24.19;47.88
11395;BME280;5753;54.402;10.220;2023-10-31T07:00:19;99153.75;;;24.15;48.12
11395;BME280;5753;54.402;10.220;2023-10-31T07:02:46;99155.38;;;24.30;47.54
11395;BME280;5753;54.402;10.220;2023-10-31T07:05:13;99157.38;;;24.00;47.81
11395;BME280;5753;54.402;10.220;2023-10-31T07:07:41;99154.28;;;24.20;47.84
11395;BME280;5753;54.402;10.220;2023-10-31T07:10:07;99156.66;;;24.37;47.82
11395;BME280;5753;54.402;10.220;2023-10-31T07:12:34;99159.34;;;24.23;47.51
11395;BME280;5753;54.402;10.220;2023-10-31T07:15:00;99161.78;;;23.86;48.49
11395;BME280;5753;54.402;10.220;2023-10-31T07:17:26;99165.78;;;23.10;50.87
11395;BME280;5753;54.402;10.220;2023-10-31T07:19:52;99161.00;;;23.02;51.08
11395;BME280;5753;54.402;10.220;2023-10-31T07:22:18;99163.97;;;23.39;50.03
11395;BME280;5753;54.402;10.220;2023-10-31T07:24:44;99160.19;;;22.87;51.88
11395;BME280;5753;54.402;10.220;2023-10-31T07:27:10;99171.09;;;22.37;52.85
11395;BME280;5753;54.402;10.220;2023-10-31T07:29:39;99167.94;;;23.32;50.58
11395;BME280;5753;54.402;10.220;2023-10-31T07:32:07;99172.84;;;23.23;50.27
11395;BME280;5753;54.402;10.220;2023-10-31T07:34:33;99177.16;;;22.82;51.83
11395;BME280;5753;54.402;10.220;2023-10-31T07:36:59;99176.38;;;21.60;54.76
11395;BME280;5753;54.402;10.220;2023-10-31T07:39:26;99174.63;;;21.45;55.38
11395;BME280;5753;54.402;10.220;2023-10-31T07:41:52;99167.41;;;21.64;55.84
11395;BME280;5753;54.402;10.220;2023-10-31T07:44:18;99161.31;;;22.25;52.82
11395;BME280;5753;54.402;10.220;2023-10-31T07:46:44;99169.13;;;22.11;53.98
11395;BME280;5753;54.402;10.220;2023-10-31T07:49:10;99177.16;;;21.30;55.23
11395;BME280;5753;54.402;10.220;2023-10-31T07:51:36;99174.25;;;21.82;55.06
11395;BME280;5753;54.402;10.220;2023-10-31T07:54:02;99172.56;;;21.81;55.14
11395;BME280;5753;54.402;10.220;2023-10-31T07:56:28;99176.31;;;20.12;60.33
11395;BME280;5753;54.402;10.220;2023-10-31T07:58:55;99183.56;;;20.41;60.27
11395;BME280;5753;54.402;10.220;2023-10-31T08:01:22;99177.28;;;21.27;57.29
11395;BME280;5753;54.402;10.220;2023-10-31T08:03:48;99184.53;;;20.22;61.12
11395;BME280;5753;54.402;10.220;2023-10-31T08:06:15;99194.88;;;19.53;63.41
11395;BME280;5753;54.402;10.220;2023-10-31T08:08:41;99191.81;;;20.51;61.13
11395;BME280;5753;54.402;10.220;2023-10-31T08:11:11;99191.88;;;19.79;62.45
11395;BME280;5753;54.402;10.220;2023-10-31T08:13:38;99185.38;;;18.94;66.54
11395;BME280;5753;54.402;10.220;2023-10-31T08:16:05;99170.50;;;19.14;67.13
11395;BME280;5753;54.402;10.220;2023-10-31T08:18:32;99183.00;;;19.45;65.77
11395;BME280;5753;54.402;10.220;2023-10-31T08:20:58;99186.31;;;19.30;65.72
11395;BME280;5753;54.402;10.220;2023-10-31T08:23:24;99184.06;;;19.96;64.49
11395;BME280;5753;54.402;10.220;2023-10-31T08:25:51;99196.09;;;18.27;69.17
11395;BME280;5753;54.402;10.220;2023-10-31T08:28:17;99194.34;;;18.47;70.14
11395;BME280;5753;54.402;10.220;2023-10-31T08:30:43;99192.81;;;19.22;68.97
11395;BME280;5753;54.402;10.220;2023-10-31T08:33:09;99190.84;;;18.06;72.91
11395;BME280;5753;54.402;10.220;2023-10-31T08:35:35;99198.75;;;19.63;65.75
11395;BME280;5753;54.402;10.220;2023-10-31T08:38:01;99201.06;;;19.31;65.61
11395;BME280;5753;54.402;10.220;2023-10-31T08:40:27;99203.06;;;20.17;63.88
11395;BME280;5753;54.402;10.220;2023-10-31T08:42:53;99212.84;;;20.13;62.13
11395;BME280;5753;54.402;10.220;2023-10-31T08:45:20;99206.28;;;20.41;61.60
11395;BME280;5753;54.402;10.220;2023-10-31T08:47:47;99213.56;;;19.81;64.61
11395;BME280;5753;54.402;10.220;2023-10-31T08:50:13;99220.16;;;18.53;67.75
11395;BME280;5753;54.402;10.220;2023-10-31T08:52:39;99213.50;;;19.26;67.76
11395;BME280;5753;54.402;10.220;2023-10-31T08:55:06;99217.44;;;18.97;67.99
11395;BME280;5753;54.402;10.220;2023-10-31T08:57:33;99231.44;;;19.90;64.34
11395;BME280;5753;54.402;10.220;2023-10-31T09:00:00;99236.69;;;19.90;63.94
11395;BME280;5753;54.402;10.220;2023-10-31T09:02:26;99240.94;;;20.46;63.03
11395;BME280;5753;54.402;10.220;2023-10-31T09:04:52;99253.84;;;19.39;65.33
11395;BME280;5753;54.402;10.220;2023-10-31T09:07:19;99251.69;;;20.40;61.70
11395;BME280;5753;54.402;10.220;2023-10-31T09:09:45;99242.94;;;19.86;61.87
11395;BME280;5753;54.402;10.220;2023-10-31T09:12:11;99258.53;;;20.06;62.89
11395;BME280;5753;54.402;10.220;2023-10-31T09:14:37;99266.09;;;19.37;65.12
11395;BME280;5753;54.402;10.220;2023-10-31T09:17:03;99276.69;;;17.89;70.74
11395;BME280;5753;54.402;10.220;2023-10-31T09:19:29;99277.94;;;19.07;66.86
11395;BME280;5753;54.402;10.220;2023-10-31T09:21:56;99276.97;;;18.05;69.19
11395;BME280;5753;54.402;10.220;2023-10-31T09:24:22;99278.38;;;17.90;70.89
11395;BME280;5753;54.402;10.220;2023-10-31T09:26:49;99289.13;;;17.59;72.47
11395;BME280;5753;54.402;10.220;2023-10-31T09:29:15;99283.56;;;17.21;74.63
11395;BME280;5753;54.402;10.220;2023-10-31T09:31:41;99290.59;;;16.94;75.13
11395;BME280;5753;54.402;10.220;2023-10-31T09:34:07;99312.09;;;16.99;75.59
11395;BME280;5753;54.402;10.220;2023-10-31T09:36:34;99315.34;;;16.81;77.42
11395;BME280;5753;54.402;10.220;2023-10-31T09:39:00;99316.09;;;17.10;75.44
11395;BME280;5753;54.402;10.220;2023-10-31T09:41:26;99324.91;;;17.06;74.82
11395;BME280;5753;54.402;10.220;2023-10-31T09:43:53;99347.94;;;17.41;73.21
11395;BME280;5753;54.402;10.220;2023-10-31T09:46:21;99344.03;;;16.52;77.10
11395;BME280;5753;54.402;10.220;2023-10-31T09:48:48;99338.53;;;16.87;76.53
11395;BME280;5753;54.402;10.220;2023-10-31T09:51:15;99348.34;;;17.06;74.08
11395;BME280;5753;54.402;10.220;2023-10-31T09:53:43;99340.13;;;16.91;73.52
11395;BME280;5753;54.402;10.220;2023-10-31T09:56:10;99362.09;;;16.00;78.76
11395;BME280;5753;54.402;10.220;2023-10-31T09:58:36;99365.56;;;16.83;75.58
11395;BME280;5753;54.402;10.220;2023-10-31T10:01:05;99377.13;;;16.47;76.82
11395;BME280;5753;54.402;10.220;2023-10-31T10:03:31;99385.47;;;17.60;71.05
11395;BME280;5753;54.402;10.220;2023-10-31T10:05:57;99406.72;;;16.43;75.89
11395;BME280;5753;54.402;10.220;2023-10-31T10:08:24;99419.03;;;16.67;75.61
11395;BME280;5753;54.402;10.220;2023-10-31T10:10:51;99424.72;;;16.78;75.81
11395;BME280;5753;54.402;10.220;2023-10-31T10:13:20;99440.91;;;16.30;78.28
11395;BME280;5753;54.402;10.220;2023-10-31T10:15:50;99444.69;;;16.20;77.09
11395;BME280;5753;54.402;10.220;2023-10-31T10:18:28;99446.50;;;16.18;78.07
11395;BME280;5753;54.402;10.220;2023-10-31T10:20:56;99455.63;;;16.31;75.55
11395;BME280;5753;54.402;10.220;2023-10-31T10:23:23;99467.59;;;16.66;75.47
11395;BME280;5753;54.402;10.220;2023-10-31T10:25:50;99461.97;;;16.51;73.42
11395;BME280;5753;54.402;10.220;2023-10-31T10:28:16;99477.47;;;16.54;75.43
11395;BME280;5753;54.402;10.220;2023-10-31T10:30:46;99470.91;;;15.82;75.57
11395;BME280;5753;54.402;10.220;2023-10-31T10:33:13;99489.06;;;16.14;74.83
11395;BME280;5753;54.402;10.220;2023-10-31T10:35:39;99498.25;;;15.95;76.97
11395;BME280;5753;54.402;10.220;2023-10-31T10:40:46;99507.03;;;15.91;77.54
11395;BME280;5753;54.402;10.220;2023-10-31T10:43:22;99505.53;;;15.48;77.39
11395;BME280;5753;54.402;10.220;2023-10-31T10:45:57;99516.91;;;15.78;77.08
11395;BME280;5753;54.402;10.220;2023-10-31T10:48:27;99530.44;;;15.55;74.02
11395;BME280;5753;54.402;10.220;2023-10-31T10:53:36;99537.56;;;16.15;73.67
11395;BME280;5753;54.402;10.220;2023-10-31T10:56:14;99550.47;;;15.86;75.98
11395;BME280;5753;54.402;10.220;2023-10-31T10:58:52;99554.38;;;15.69;75.09
11395;BME280;5753;54.402;10.220;2023-10-31T11:01:21;99565.59;;;15.71;73.03
11395;BME280;5753;54.402;10.220;2023-10-31T11:03:48;99558.97;;;16.25;72.25
11395;BME280;5753;54.402;10.220;2023-10-31T11:06:15;99569.53;;;15.15;76.01
11395;BME280;5753;54.402;10.220;2023-10-31T11:08:43;99572.69;;;16.30;68.70
11395;BME280;5753;54.402;10.220;2023-10-31T11:11:11;99562.00;;;15.76;70.21
11395;BME280;5753;54.402;10.220;2023-10-31T11:13:37;99580.53;;;16.28;68.15
11395;BME280;5753;54.402;10.220;2023-10-31T11:16:09;99585.81;;;16.25;68.97
11395;BME280;5753;54.402;10.220;2023-10-31T11:18:37;99592.53;;;15.67;71.85
11395;BME280;5753;54.402;10.220;2023-10-31T11:21:03;99587.53;;;15.58;71.34
11395;BME280;5753;54.402;10.220;2023-10-31T11:23:29;99600.13;;;16.09;68.46
11395;BME280;5753;54.402;10.220;2023-10-31T11:25:56;99599.72;;;16.24;68.07
11395;BME280;5753;54.402;10.220;2023-10-31T11:28:22;99598.47;;;16.05;67.99
11395;BME280;5753;54.402;10.220;2023-10-31T11:30:51;99615.78;;;15.72;71.35
11395;BME280;5753;54.402;10.220;2023-10-31T11:33:24;99622.25;;;15.90;68.60
11395;BME280;5753;54.402;10.220;2023-10-31T11:36:10;99629.28;;;16.20;68.16
11395;BME280;5753;54.402;10.220;2023-10-31T11:38:37;99629.16;;;15.91;69.44
11395;BME280;5753;54.402;10.220;2023-10-31T11:41:04;99638.41;;;16.35;67.67
11395;BME280;5753;54.402;10.220;2023-10-31T11:46:17;99644.03;;;15.86;66.49
11395;BME280;5753;54.402;10.220;2023-10-31T11:48:52;99651.28;;;16.07;64.72
11395;BME280;5753;54.402;10.220;2023-10-31T11:51:19;99656.75;;;16.30;63.69
11395;BME280;5753;54.402;10.220;2023-10-31T11:53:45;99665.44;;;15.95;65.30
11395;BME280;5753;54.402;10.220;2023-10-31T11:56:12;99659.34;;;15.62;66.33
11395;BME280;5753;54.402;10.220;2023-10-31T11:58:38;99664.97;;;15.41;69.33
11395;BME280;5753;54.402;10.220;2023-10-31T12:01:06;99666.47;;;15.51;67.35
11395;BME280;5753;54.402;10.220;2023-10-31T12:03:40;99678.59;;;15.10;68.86
11395;BME280;5753;54.402;10.220;2023-10-31T12:06:07;99686.75;;;15.74;66.79
11395;BME280;5753;54.402;10.220;2023-10-31T12:08:39;99692.78;;;15.36;69.86
11395;BME280;5753;54.402;10.220;2023-10-31T12:11:16;99703.44;;;14.82;70.02
11395;BME280;5753;54.402;10.220;2023-10-31T12:16:18;99704.50;;;15.54;68.64
11395;BME280;5753;54.402;10.220;2023-10-31T12:18:44;99711.16;;;15.27;68.14
11395;BME280;5753;54.402;10.220;2023-10-31T12:21:11;99728.63;;;16.33;64.95
11395;BME280;5753;54.402;10.220;2023-10-31T12:23:40;99727.97;;;15.49;65.99
11395;BME280;5753;54.402;10.220;2023-10-31T12:26:06;99743.50;;;14.67;70.99
11395;BME280;5753;54.402;10.220;2023-10-31T12:28:32;99738.44;;;15.46;65.18
11395;BME280;5753;54.402;10.220;2023-10-31T12:30:59;99744.09;;;16.02;65.10
11395;BME280;5753;54.402;10.220;2023-10-31T12:33:28;99746.53;;;15.32;66.73
11395;BME280;5753;54.402;10.220;2023-10-31T12:35:58;99761.41;;;15.66;67.20
11395;BME280;5753;54.402;10.220;2023-10-31T12:38:26;99763.59;;;16.21;64.27
11395;BME280;5753;54.402;10.220;2023-10-31T12:40:53;99767.09;;;16.88;60.24
11395;BME280;5753;54.402;10.220;2023-10-31T12:43:21;99780.13;;;16.53;61.42
11395;BME280;5753;54.402;10.220;2023-10-31T12:45:47;99775.41;;;15.97;61.73
11395;BME280;5753;54.402;10.220;2023-10-31T12:48:13;99790.81;;;16.05;63.91
11395;BME280;5753;54.402;10.220;2023-10-31T12:50:40;99790.97;;;15.17;66.48
11395;BME280;5753;54.402;10.220;2023-10-31T12:53:09;99799.66;;;15.56;64.92
11395;BME280;5753;54.402;10.220;2023-10-31T12:55:41;99799.50;;;16.41;61.37
11395;BME280;5753;54.402;10.220;2023-10-31T12:58:09;99812.16;;;16.19;62.19
11395;BME280;5753;54.402;10.220;2023-10-31T13:00:36;99819.22;;;16.85;60.67
11395;BME280;5753;54.402;10.220;2023-10-31T13:03:05;99827.06;;;16.48;60.35
11395;BME280;5753;54.402;10.220;2023-10-31T13:05:32;99830.09;;;15.06;64.90
11395;BME280;5753;54.402;10.220;2023-10-31T13:08:14;99830.72;;;15.64;62.50